Terminal Aerodrome Forecast
Issued by NWS

Home | Current Version | Previous Version | Text Only | Print | Product List | Glossary On
Versions: 1 2 3 4 5 6 7 8 9 10 11 12 13 14 15 16
702
FTUS45 KTFX 230520
TAFGTF
TAF
KGTF 230520Z 2306/2406 25008KT P6SM FEW090 BKN180
     FM231000 22008KT P6SM SCT050 BKN080
     FM231700 25014G21KT P6SM SCT080
     FM240200 23010KT P6SM SKC=

USA.gov is the U.S. government's official web portal to all federal, state and local government web resources and services.